Time;durP1;ratioP1;P1;durP2;ratioP2;P2;SDS_P1;SDS_P2;PMS_P1;PMS_P2;Temp;Humidity;BMP_temperature;BMP_pressure;BME280_temperature;BME280_humidity;BME280_pressure;Samples;Min_cycle;Max_cycle;Signal;HPM_P1;HPM_P2
2023/08/12 00:00:56;;;;;;;2.75;2.55;;;15.00;99.90;;;;;;4210332;28;20036;-65
2023/08/12 00:02:58;;;;;;;2.92;2.67;;;15.00;99.90;;;;;;4210506;28;20456;-65
2023/08/12 00:04:59;;;;;;;3.17;2.50;;;14.90;99.90;;;;;;4210585;28;20426;-63
2023/08/12 00:07:00;;;;;;;3.38;3.08;;;14.90;99.90;;;;;;4210008;28;20024;-68
2023/08/12 00:09:03;;;;;;;5.82;3.05;;;14.90;99.90;;;;;;4210423;28;20023;-68
2023/08/12 00:11:04;;;;;;;3.38;2.83;;;14.90;99.90;;;;;;4209745;28;20478;-64
2023/08/12 00:13:06;;;;;;;5.03;3.08;;;14.90;99.90;;;;;;4209683;28;20032;-64
2023/08/12 00:15:08;;;;;;;3.17;2.40;;;14.80;99.90;;;;;;4210103;28;20044;-63
2023/08/12 00:17:09;;;;;;;2.90;2.55;;;14.80;99.90;;;;;;4209912;28;20070;-62
2023/08/12 00:19:10;;;;;;;4.43;2.90;;;14.70;99.90;;;;;;4208658;28;20040;-63
2023/08/12 00:21:11;;;;;;;3.13;2.80;;;14.60;99.90;;;;;;4204561;28;20040;-64
2023/08/12 00:23:12;;;;;;;3.38;2.88;;;14.60;99.90;;;;;;4210713;28;20028;-66
2023/08/12 00:25:13;;;;;;;3.03;2.55;;;14.60;99.90;;;;;;4209758;28;20036;-65
2023/08/12 00:27:14;;;;;;;4.63;2.65;;;14.50;99.90;;;;;;4211059;28;20017;-63
2023/08/12 00:29:15;;;;;;;3.53;2.75;;;14.50;99.90;;;;;;4210074;28;20129;-67
2023/08/12 00:31:17;;;;;;;2.85;2.47;;;14.40;99.90;;;;;;4210830;28;20024;-64
2023/08/12 00:33:18;;;;;;;6.97;3.22;;;14.40;99.90;;;;;;4210165;28;20082;-65
2023/08/12 00:35:19;;;;;;;4.13;2.70;;;14.40;99.90;;;;;;4212357;28;20024;-62
2023/08/12 00:37:20;;;;;;;3.97;2.90;;;14.30;99.90;;;;;;4213967;28;20020;-64
2023/08/12 00:39:21;;;;;;;6.33;3.10;;;14.20;99.90;;;;;;4213778;28;20109;-66
2023/08/12 00:41:22;;;;;;;4.50;2.80;;;14.20;99.90;;;;;;4213632;28;20468;-64
2023/08/12 00:43:23;;;;;;;3.20;2.90;;;14.20;99.90;;;;;;4212659;28;20035;-68
2023/08/12 00:45:25;;;;;;;4.43;2.45;;;14.20;99.90;;;;;;4213593;28;20032;-63
2023/08/12 00:47:28;;;;;;;4.33;3.03;;;14.20;99.90;;;;;;4212055;28;20572;-62
2023/08/12 00:49:31;;;;;;;3.70;2.97;;;14.20;99.90;;;;;;4213544;28;20107;-68
2023/08/12 00:51:33;;;;;;;3.57;2.73;;;14.10;99.90;;;;;;4211273;28;20032;-66
2023/08/12 00:53:34;;;;;;;3.50;2.72;;;14.10;99.90;;;;;;4209240;28;20044;-63
2023/08/12 00:55:36;;;;;;;4.00;3.10;;;14.10;99.90;;;;;;4211100;28;20365;-63
2023/08/12 00:57:37;;;;;;;2.73;2.43;;;14.10;99.90;;;;;;4214181;28;20028;-64
2023/08/12 00:59:41;;;;;;;4.33;2.73;;;14.10;99.90;;;;;;4212146;28;20101;-65
2023/08/12 01:01:44;;;;;;;4.63;3.00;;;14.00;99.90;;;;;;4213206;28;20027;-65
2023/08/12 01:03:45;;;;;;;4.13;2.77;;;14.00;99.90;;;;;;4212229;28;20044;-62
2023/08/12 01:05:47;;;;;;;4.10;2.87;;;14.00;99.90;;;;;;4213897;28;20028;-63
2023/08/12 01:07:48;;;;;;;3.73;3.03;;;14.00;99.90;;;;;;4212094;28;20032;-66
2023/08/12 01:09:49;;;;;;;3.83;2.57;;;14.00;99.90;;;;;;4213579;28;20041;-64
2023/08/12 01:12:02;;;;;;;3.87;2.93;;;13.90;99.90;;;;;;4213295;28;20012;-64
2023/08/12 01:14:12;;;;;;;4.50;2.60;;;13.90;99.90;;;;;;4213610;28;20036;-67
2023/08/12 01:16:17;;;;;;;3.85;2.80;;;13.90;99.90;;;;;;4213234;28;20066;-64
2023/08/12 01:18:18;;;;;;;3.30;2.90;;;13.90;99.90;;;;;;4213039;28;20098;-64
2023/08/12 01:20:25;;;;;;;2.93;2.63;;;13.90;99.90;;;;;;4213442;28;20109;-63
2023/08/12 01:22:29;;;;;;;3.00;2.70;;;13.90;99.90;;;;;;4212475;28;20024;-63
2023/08/12 01:24:37;;;;;;;3.03;2.37;;;13.90;99.90;;;;;;4212876;28;20044;-63
2023/08/12 01:26:38;;;;;;;3.27;2.50;;;13.90;99.90;;;;;;4212285;28;20040;-61
2023/08/12 01:28:39;;;;;;;3.63;2.57;;;13.90;99.90;;;;;;4213848;28;20024;-64
2023/08/12 01:30:49;;;;;;;3.40;2.77;;;14.00;99.90;;;;;;4211899;28;20452;-66
2023/08/12 01:33:29;;;;;;;4.53;3.03;;;14.00;99.90;;;;;;4213576;28;20438;-66
2023/08/12 01:35:55;;;;;;;3.65;2.47;;;14.00;99.90;;;;;;4181596;28;20040;-62
2023/08/12 01:37:58;;;;;;;3.37;2.57;;;14.00;99.90;;;;;;4212675;28;20403;-63
2023/08/12 01:40:05;;;;;;;4.77;2.37;;;14.00;99.90;;;;;;4213221;28;20093;-66
2023/08/12 01:42:06;;;;;;;3.43;3.07;;;14.00;99.90;;;;;;4212872;28;20131;-64
2023/08/12 01:44:07;;;;;;;4.67;2.70;;;13.90;99.90;;;;;;4212947;28;20040;-61
2023/08/12 01:46:10;;;;;;;3.40;2.23;;;13.90;99.90;;;;;;4211731;28;20577;-63
2023/08/12 01:48:11;;;;;;;4.20;2.57;;;13.90;99.90;;;;;;4194452;28;20558;-66
2023/08/12 01:50:12;;;;;;;4.17;2.60;;;13.90;99.90;;;;;;4212450;28;20097;-63
2023/08/12 01:52:13;;;;;;;3.77;2.30;;;14.00;99.90;;;;;;4212211;28;20438;-63
2023/08/12 01:54:14;;;;;;;2.40;2.03;;;14.00;99.90;;;;;;4194757;28;20090;-64
2023/08/12 01:56:15;;;;;;;2.83;2.37;;;14.00;99.90;;;;;;4212035;28;20028;-62
2023/08/12 01:58:16;;;;;;;2.67;2.43;;;14.00;99.90;;;;;;4213080;28;20040;-63
2023/08/12 02:00:17;;;;;;;4.00;2.67;;;14.00;99.90;;;;;;4211749;28;20145;-65
2023/08/12 02:02:18;;;;;;;5.07;2.70;;;14.00;99.90;;;;;;4213051;28;20032;-61
2023/08/12 02:04:20;;;;;;;3.47;2.27;;;14.00;99.90;;;;;;4193271;28;20040;-63
2023/08/12 02:06:21;;;;;;;2.60;2.40;;;14.00;99.90;;;;;;4213099;28;20476;-63
2023/08/12 02:08:22;;;;;;;3.83;2.13;;;14.00;99.90;;;;;;4212005;28;20024;-66
2023/08/12 02:10:23;;;;;;;2.57;2.13;;;14.00;99.90;;;;;;4211929;28;20031;-63
2023/08/12 02:12:24;;;;;;;2.97;2.60;;;14.10;99.90;;;;;;4211632;28;20430;-63
2023/08/12 02:14:25;;;;;;;3.07;2.03;;;14.10;99.90;;;;;;4212381;28;20039;-64
2023/08/12 02:16:26;;;;;;;3.27;2.30;;;14.10;99.90;;;;;;4212361;28;20093;-68
2023/08/12 02:18:27;;;;;;;2.50;2.23;;;14.20;99.90;;;;;;4212026;28;20109;-63
2023/08/12 02:20:28;;;;;;;2.47;2.17;;;14.10;99.90;;;;;;4212492;28;20028;-64
2023/08/12 02:22:29;;;;;;;2.23;2.03;;;14.10;99.90;;;;;;4211080;28;20032;-67
2023/08/12 02:24:31;;;;;;;1.97;1.70;;;14.10;99.90;;;;;;4212819;28;20446;-64
2023/08/12 02:26:32;;;;;;;2.53;2.07;;;14.10;99.90;;;;;;4211490;28;20498;-63
2023/08/12 02:28:33;;;;;;;3.33;2.27;;;14.10;99.90;;;;;;4212989;28;20077;-66
2023/08/12 02:30:34;;;;;;;3.63;2.00;;;14.10;99.90;;;;;;4212030;28;20081;-62
2023/08/12 02:32:35;;;;;;;2.20;2.00;;;14.10;99.90;;;;;;4212694;28;20032;-63
2023/08/12 02:34:36;;;;;;;4.23;2.07;;;14.10;99.90;;;;;;4210678;28;20144;-63
2023/08/12 02:36:37;;;;;;;3.03;2.10;;;14.10;99.90;;;;;;4212606;28;20480;-65
2023/08/12 02:38:38;;;;;;;4.67;2.40;;;14.10;99.90;;;;;;4211444;28;20056;-63
2023/08/12 02:40:39;;;;;;;7.10;1.97;;;14.00;99.90;;;;;;4212312;28;20537;-62
2023/08/12 02:42:41;;;;;;;2.97;1.90;;;14.00;99.90;;;;;;4211535;28;20632;-62
2023/08/12 02:44:42;;;;;;;2.63;1.90;;;14.00;99.90;;;;;;4212262;28;20032;-63
2023/08/12 02:46:43;;;;;;;3.60;2.20;;;14.00;99.90;;;;;;4211732;28;20058;-62
2023/08/12 02:48:45;;;;;;;2.60;2.23;;;14.00;99.90;;;;;;4211780;28;20467;-63
2023/08/12 02:50:46;;;;;;;1.83;1.70;;;14.00;99.90;;;;;;4211713;28;20032;-62
2023/08/12 02:52:47;;;;;;;2.97;2.10;;;14.00;99.90;;;;;;4211268;28;20073;-62
2023/08/12 02:54:48;;;;;;;3.10;2.53;;;13.90;99.90;;;;;;4212188;28;20032;-63
2023/08/12 02:56:50;;;;;;;6.27;2.80;;;13.80;99.90;;;;;;4210782;28;20062;-63
2023/08/12 02:58:52;;;;;;;5.73;2.70;;;13.60;99.90;;;;;;4211716;28;20040;-65
2023/08/12 03:00:55;;;;;;;3.40;2.70;;;13.50;99.90;;;;;;4210643;28;20097;-63
2023/08/12 03:02:56;;;;;;;4.17;2.40;;;13.40;99.90;;;;;;4211934;28;20037;-63
2023/08/12 03:04:57;;;;;;;3.50;2.53;;;13.20;99.90;;;;;;4210985;28;20033;-64
2023/08/12 03:06:58;;;;;;;4.33;2.80;;;13.10;99.90;;;;;;4212110;28;20486;-64
2023/08/12 03:08:59;;;;;;;4.97;3.03;;;13.00;99.90;;;;;;4211026;28;20062;-61
2023/08/12 03:11:01;;;;;;;4.07;2.70;;;13.00;99.90;;;;;;4212195;28;20468;-62
2023/08/12 03:13:03;;;;;;;3.07;2.33;;;12.90;99.90;;;;;;4210946;28;20054;-63
2023/08/12 03:15:06;;;;;;;4.47;2.93;;;12.90;99.90;;;;;;4211750;28;20101;-61
2023/08/12 03:17:08;;;;;;;3.70;2.57;;;12.90;99.90;;;;;;4210659;28;20040;-63
2023/08/12 03:19:09;;;;;;;5.57;2.40;;;12.90;99.90;;;;;;4211462;28;20070;-65
2023/08/12 03:21:10;;;;;;;2.97;2.30;;;12.90;99.90;;;;;;4211288;28;20036;-62
2023/08/12 03:23:11;;;;;;;3.17;2.20;;;12.80;99.90;;;;;;4210720;28;20101;-66
2023/08/12 03:25:14;;;;;;;4.10;2.33;;;12.80;99.90;;;;;;4210616;28;20065;-66
2023/08/12 03:27:15;;;;;;;5.67;2.50;;;12.80;99.90;;;;;;4209763;28;20057;-66
2023/08/12 03:29:17;;;;;;;3.87;2.80;;;12.90;99.90;;;;;;4211354;28;20450;-65
2023/08/12 03:31:18;;;;;;;3.37;2.30;;;13.00;99.90;;;;;;4209930;28;20044;-62
2023/08/12 03:33:19;;;;;;;2.93;2.50;;;13.10;99.90;;;;;;4211686;28;20105;-65
2023/08/12 03:35:20;;;;;;;3.67;2.30;;;13.20;99.90;;;;;;4209721;28;20036;-64
2023/08/12 03:37:21;;;;;;;2.37;2.10;;;13.30;99.90;;;;;;4211813;28;20028;-64
2023/08/12 03:39:24;;;;;;;3.73;2.73;;;13.50;99.90;;;;;;4192013;28;20044;-64
2023/08/12 03:41:25;;;;;;;2.33;2.13;;;13.80;99.90;;;;;;4211067;28;20047;-63
2023/08/12 03:43:26;;;;;;;3.00;2.33;;;14.10;99.90;;;;;;4210594;28;20092;-62
2023/08/12 03:45:27;;;;;;;3.47;2.50;;;14.30;99.90;;;;;;4211643;28;20032;-63
2023/08/12 03:47:28;;;;;;;5.13;3.07;;;14.70;99.90;;;;;;4209726;28;20032;-63
2023/08/12 03:49:29;;;;;;;9.33;4.10;;;15.00;99.90;;;;;;4211119;28;20410;-63
2023/08/12 03:51:30;;;;;;;7.43;4.33;;;15.30;99.90;;;;;;4210787;28;20032;-62
2023/08/12 03:53:31;;;;;;;7.60;4.53;;;15.50;99.90;;;;;;4210909;28;20467;-64
2023/08/12 03:55:33;;;;;;;5.50;3.83;;;15.90;99.90;;;;;;4210706;28;20180;-64
2023/08/12 03:57:34;;;;;;;8.57;3.90;;;16.30;99.90;;;;;;4210423;28;20028;-63
2023/08/12 03:59:36;;;;;;;7.30;3.85;;;16.70;99.90;;;;;;4211292;28;20039;-62
2023/08/12 04:01:37;;;;;;;4.85;3.10;;;17.20;99.90;;;;;;4210228;28;20545;-62
2023/08/12 04:03:38;;;;;;;3.33;2.63;;;17.60;99.90;;;;;;4211230;28;20035;-62
2023/08/12 04:05:51;;;;;;;3.72;3.17;;;18.20;99.90;;;;;;4209399;28;20101;-62
2023/08/12 04:07:53;;;;;;;4.55;2.80;;;18.70;99.90;;;;;;4211159;28;20081;-62
2023/08/12 04:09:54;;;;;;;3.05;2.20;;;19.00;99.90;;;;;;4209582;28;20372;-61
2023/08/12 04:11:55;;;;;;;2.97;1.92;;;19.40;99.90;;;;;;4210411;28;20862;-61
2023/08/12 04:13:56;;;;;;;5.18;2.10;;;19.70;99.90;;;;;;4210097;28;20460;-62
2023/08/12 04:15:57;;;;;;;6.13;2.22;;;20.00;99.90;;;;;;4210822;28;20048;-64
2023/08/12 04:17:58;;;;;;;7.75;3.42;;;20.30;99.90;;;;;;4209854;28;20027;-63
2023/08/12 04:20:00;;;;;;;8.32;3.35;;;20.40;99.90;;;;;;4210520;28;20043;-62
2023/08/12 04:22:01;;;;;;;10.45;3.17;;;20.40;99.90;;;;;;4208762;28;20040;-61
2023/08/12 04:24:02;;;;;;;7.50;2.67;;;20.70;99.90;;;;;;4210036;28;20431;-61
2023/08/12 04:26:03;;;;;;;8.13;2.70;;;21.10;99.90;;;;;;4210065;28;20081;-61
2023/08/12 04:28:05;;;;;;;8.35;3.13;;;21.50;99.90;;;;;;4209705;28;20043;-63
2023/08/12 04:30:07;;;;;;;6.45;3.28;;;21.80;99.90;;;;;;4210719;28;20362;-62
2023/08/12 04:32:08;;;;;;;6.63;2.70;;;22.20;99.90;;;;;;4209557;28;20048;-61
2023/08/12 04:34:09;;;;;;;9.02;4.13;;;22.10;99.90;;;;;;4209913;28;20089;-60
2023/08/12 04:36:11;;;;;;;6.35;2.88;;;22.20;99.90;;;;;;4209690;28;20544;-62
2023/08/12 04:38:12;;;;;;;3.53;2.33;;;22.30;99.90;;;;;;4210831;28;20031;-62
2023/08/12 04:40:13;;;;;;;6.43;3.65;;;22.50;99.90;;;;;;4208792;28;20048;-62
2023/08/12 04:42:14;;;;;;;10.07;3.70;;;22.90;99.90;;;;;;4210648;28;20423;-61
2023/08/12 04:44:15;;;;;;;7.40;3.70;;;23.00;99.90;;;;;;4209780;28;20561;-62
2023/08/12 04:46:16;;;;;;;6.10;3.45;;;23.30;99.90;;;;;;4210242;28;20040;-62
2023/08/12 04:48:17;;;;;;;8.10;3.22;;;23.40;99.90;;;;;;4208752;28;20097;-62
2023/08/12 04:50:18;;;;;;;5.18;2.63;;;23.50;99.60;;;;;;4209788;28;20089;-61
2023/08/12 04:52:20;;;;;;;5.20;2.10;;;23.90;99.20;;;;;;4208926;28;20181;-61
2023/08/12 04:54:21;;;;;;;3.97;1.83;;;23.80;98.80;;;;;;4210017;28;20036;-61
2023/08/12 04:56:24;;;;;;;5.43;2.25;;;23.90;98.40;;;;;;4209460;28;20024;-61
2023/08/12 04:58:25;;;;;;;5.82;2.17;;;24.00;98.10;;;;;;4210333;28;20024;-61
2023/08/12 05:00:27;;;;;;;2.65;1.85;;;24.40;97.70;;;;;;4209551;28;20450;-61
2023/08/12 05:02:29;;;;;;;6.32;2.70;;;24.80;97.10;;;;;;4210085;28;20410;-62
2023/08/12 05:04:31;;;;;;;2.42;1.75;;;25.20;96.40;;;;;;4210462;28;20109;-62
2023/08/12 05:06:32;;;;;;;2.40;2.20;;;25.20;95.90;;;;;;4209627;28;20102;-62
2023/08/12 05:08:33;;;;;;;3.03;1.70;;;25.00;95.70;;;;;;4209900;28;20078;-61
2023/08/12 05:10:34;;;;;;;2.05;1.83;;;25.20;95.60;;;;;;4190911;28;20071;-61
2023/08/12 05:12:36;;;;;;;4.10;2.35;;;25.30;95.10;;;;;;4210271;28;20040;-61
2023/08/12 05:14:37;;;;;;;5.65;2.63;;;25.40;94.60;;;;;;4208674;28;20066;-62
2023/08/12 05:16:39;;;;;;;3.00;1.95;;;25.80;94.40;;;;;;4210478;28;20399;-62
2023/08/12 05:18:40;;;;;;;2.95;1.70;;;26.00;93.90;;;;;;4209255;28;20093;-63
2023/08/12 05:20:42;;;;;;;4.40;2.75;;;26.20;93.50;;;;;;4210298;28;20399;-61
2023/08/12 05:22:43;;;;;;;3.95;2.22;;;26.60;92.90;;;;;;4211767;28;20101;-62
2023/08/12 05:24:44;;;;;;;4.65;2.13;;;26.90;92.60;;;;;;4212769;28;20093;-62
2023/08/12 05:26:45;;;;;;;4.85;2.72;;;27.30;92.10;;;;;;4210626;28;20028;-63
2023/08/12 05:28:46;;;;;;;5.47;2.05;;;27.40;91.70;;;;;;4213139;28;20032;-61
2023/08/12 05:30:48;;;;;;;1.85;1.75;;;27.50;91.40;;;;;;4213186;28;20442;-64
2023/08/12 05:32:49;;;;;;;5.28;1.90;;;27.50;91.00;;;;;;4212179;28;20044;-63
2023/08/12 05:34:52;;;;;;;2.72;1.63;;;27.60;90.70;;;;;;4212611;28;20434;-61
2023/08/12 05:36:53;;;;;;;3.55;1.92;;;27.90;90.30;;;;;;4211708;28;20036;-62
2023/08/12 05:38:54;;;;;;;5.28;1.80;;;28.20;90.00;;;;;;4211699;28;20175;-62
2023/08/12 05:40:55;;;;;;;5.38;4.25;;;28.30;89.40;;;;;;4192399;28;20040;-61
2023/08/12 05:42:57;;;;;;;7.10;2.53;;;28.40;88.70;;;;;;4212658;28;20036;-61
2023/08/12 05:44:58;;;;;;;4.30;2.00;;;28.80;87.80;;;;;;4211373;28;20020;-62
2023/08/12 05:46:59;;;;;;;3.10;1.73;;;29.00;87.00;;;;;;4211967;28;20120;-62
2023/08/12 05:49:00;;;;;;;5.07;1.70;;;29.00;86.10;;;;;;4211703;28;20032;-62
2023/08/12 05:51:01;;;;;;;4.57;1.67;;;28.70;85.80;;;;;;4211520;28;20043;-62
2023/08/12 05:53:03;;;;;;;2.65;1.50;;;28.50;85.80;;;;;;4210894;28;20741;-61
2023/08/12 05:55:04;;;;;;;2.20;1.65;;;28.80;85.30;;;;;;4212249;28;20044;-64
2023/08/12 05:57:05;;;;;;;2.67;1.20;;;29.00;84.40;;;;;;4211164;28;20606;-61
2023/08/12 05:59:06;;;;;;;2.63;1.65;;;29.20;84.00;;;;;;4212687;28;20044;-62
2023/08/12 06:01:07;;;;;;;3.67;1.67;;;29.50;83.20;;;;;;4212097;28;20500;-62
2023/08/12 06:03:09;;;;;;;3.95;2.08;;;29.50;82.20;;;;;;4213896;28;20089;-63
2023/08/12 06:05:10;;;;;;;3.65;1.15;;;29.70;81.80;;;;;;4211633;28;20444;-64
2023/08/12 06:07:11;;;;;;;2.35;1.80;;;29.60;81.60;;;;;;4211972;28;20016;-61
2023/08/12 06:09:12;;;;;;;5.50;1.45;;;29.70;81.30;;;;;;4208916;28;20024;-62
2023/08/12 06:11:13;;;;;;;2.33;1.80;;;29.70;81.00;;;;;;4202697;28;20113;-62
2023/08/12 06:13:14;;;;;;;4.38;2.42;;;29.20;80.70;;;;;;4213009;28;20081;-62
2023/08/12 06:15:15;;;;;;;11.52;6.40;;;29.10;81.20;;;;;;4211867;28;20081;-62
2023/08/12 06:17:16;;;;;;;5.70;3.97;;;29.10;80.70;;;;;;4213071;28;20062;-64
2023/08/12 06:19:17;;;;;;;2.53;2.22;;;29.00;80.50;;;;;;4211169;28;20097;-63
2023/08/12 06:21:18;;;;;;;2.72;1.35;;;29.30;80.20;;;;;;4212962;28;20028;-62
2023/08/12 06:23:19;;;;;;;4.03;1.17;;;29.50;80.00;;;;;;4210456;28;20454;-62
2023/08/12 06:25:20;;;;;;;2.33;1.55;;;29.80;79.40;;;;;;4211907;28;20097;-62
2023/08/12 06:27:22;;;;;;;3.10;1.50;;;30.20;78.90;;;;;;4210814;28;20662;-63
2023/08/12 06:29:23;;;;;;;3.78;1.15;;;30.50;78.40;;;;;;4211790;28;20040;-63
2023/08/12 06:31:24;;;;;;;5.88;1.38;;;30.90;77.50;;;;;;4194950;28;20025;-63
2023/08/12 06:33:25;;;;;;;3.05;1.40;;;31.10;76.90;;;;;;4209689;28;20183;-63
2023/08/12 06:35:26;;;;;;;3.25;1.23;;;31.20;76.00;;;;;;4211243;28;20065;-63
2023/08/12 06:37:27;;;;;;;1.08;1.00;;;31.30;75.50;;;;;;4211720;28;20085;-63
2023/08/12 06:39:28;;;;;;;1.40;1.00;;;31.10;74.90;;;;;;4211861;28;20087;-63
2023/08/12 06:41:29;;;;;;;5.55;1.25;;;30.60;74.90;;;;;;4211042;28;20485;-62
2023/08/12 06:43:30;;;;;;;1.55;0.80;;;30.50;75.50;;;;;;4211421;28;20081;-62
2023/08/12 06:45:31;;;;;;;5.53;2.33;;;30.20;75.30;;;;;;4210365;28;20050;-60
2023/08/12 06:47:32;;;;;;;13.32;3.67;;;29.90;75.40;;;;;;4210851;28;20028;-64
2023/08/12 06:49:33;;;;;;;2.88;1.20;;;29.40;76.10;;;;;;4210847;28;20041;-63
2023/08/12 06:51:35;;;;;;;2.35;1.50;;;29.20;76.60;;;;;;4209585;28;20036;-62
2023/08/12 06:53:37;;;;;;;12.55;2.15;;;29.60;76.20;;;;;;4210626;28;20032;-63
2023/08/12 06:55:44;;;;;;;7.35;1.75;;;29.50;76.30;;;;;;4212013;28;20089;-62
2023/08/12 06:57:45;;;;;;;2.00;1.60;;;29.10;76.20;;;;;;4210833;28;20070;-62
2023/08/12 06:59:46;;;;;;;1.33;1.20;;;28.80;76.90;;;;;;4211383;28;20102;-63
2023/08/12 07:01:47;;;;;;;1.83;1.63;;;28.70;77.00;;;;;;4210801;28;20028;-63
2023/08/12 07:03:48;;;;;;;4.25;1.67;;;27.80;77.50;;;;;;4211209;28;20564;-62
2023/08/12 07:05:50;;;;;;;2.58;1.63;;;28.00;78.60;;;;;;4210876;28;20510;-63
2023/08/12 07:07:51;;;;;;;2.30;1.60;;;28.20;78.10;;;;;;4192754;28;20032;-62
2023/08/12 07:09:52;;;;;;;2.88;1.67;;;28.40;78.00;;;;;;4210496;28;20082;-63
2023/08/12 07:11:53;;;;;;;6.28;1.90;;;28.70;77.50;;;;;;4209935;28;20040;-63
2023/08/12 07:13:54;;;;;;;1.95;1.48;;;27.50;78.10;;;;;;4210677;28;20582;-62
2023/08/12 07:15:55;;;;;;;2.00;1.80;;;27.10;79.80;;;;;;4209817;28;20097;-61
2023/08/12 07:17:57;;;;;;;1.73;1.63;;;27.60;79.50;;;;;;4211018;28;20031;-62
2023/08/12 07:19:58;;;;;;;4.63;2.13;;;27.60;78.90;;;;;;4209077;28;20113;-62
2023/08/12 07:21:59;;;;;;;3.05;1.50;;;27.40;79.40;;;;;;4210530;28;20040;-60
2023/08/12 07:24:00;;;;;;;1.52;1.30;;;27.70;79.90;;;;;;4210619;28;20036;-61
2023/08/12 07:26:01;;;;;;;5.90;2.03;;;27.70;79.70;;;;;;4211309;28;20165;-61
2023/08/12 07:28:03;;;;;;;3.00;1.70;;;27.80;79.60;;;;;;4210521;28;20290;-63
2023/08/12 07:30:04;;;;;;;14.68;3.13;;;27.70;79.80;;;;;;4211636;28;20032;-62
2023/08/12 07:32:05;;;;;;;44.35;6.60;;;27.60;79.70;;;;;;4209883;28;20044;-63
2023/08/12 07:34:07;;;;;;;24.38;4.28;;;27.40;79.80;;;;;;4211667;28;20089;-62
2023/08/12 07:36:08;;;;;;;9.70;2.78;;;27.00;80.80;;;;;;4209899;28;20024;-62
2023/08/12 07:38:09;;;;;;;2.75;1.90;;;27.20;81.00;;;;;;4210786;28;20036;-60
2023/08/12 07:40:10;;;;;;;2.60;1.85;;;27.00;80.90;;;;;;4208894;28;20098;-61
2023/08/12 07:42:12;;;;;;;2.72;1.70;;;26.90;80.70;;;;;;4209891;28;20032;-61
2023/08/12 07:44:13;;;;;;;2.92;1.42;;;26.00;81.10;;;;;;4210189;28;20108;-62
2023/08/12 07:46:14;;;;;;;6.10;1.70;;;26.00;82.70;;;;;;4209966;28;20062;-62
2023/08/12 07:48:15;;;;;;;2.50;1.77;;;26.50;81.60;;;;;;4210109;28;20373;-63
2023/08/12 07:50:16;;;;;;;2.78;1.58;;;26.90;81.10;;;;;;4209110;28;20040;-65
2023/08/12 07:52:17;;;;;;;5.20;1.75;;;27.00;80.50;;;;;;4211077;28;20105;-61
2023/08/12 07:54:18;;;;;;;1.92;1.60;;;26.80;80.80;;;;;;4209793;28;20077;-62
2023/08/12 07:56:19;;;;;;;14.05;2.88;;;26.70;81.40;;;;;;4192267;28;20151;-61
2023/08/12 07:58:21;;;;;;;4.50;1.83;;;26.70;81.50;;;;;;4209231;28;20028;-60
2023/08/12 08:00:22;;;;;;;2.20;2.00;;;26.90;81.50;;;;;;4210752;28;20032;-61
2023/08/12 08:02:23;;;;;;;1.90;1.60;;;26.90;81.10;;;;;;4209741;28;20035;-61
2023/08/12 08:04:24;;;;;;;4.25;1.70;;;27.00;81.10;;;;;;4211207;28;20434;-61
2023/08/12 08:06:25;;;;;;;2.03;1.67;;;27.00;82.00;;;;;;4209105;28;20089;-59
2023/08/12 08:08:26;;;;;;;3.80;1.58;;;27.10;81.80;;;;;;4210868;28;20089;-61
2023/08/12 08:10:27;;;;;;;1.83;1.42;;;27.50;80.90;;;;;;4209696;28;20024;-64
2023/08/12 08:12:28;;;;;;;3.20;1.98;;;27.70;80.40;;;;;;4209659;28;20387;-60
2023/08/12 08:14:29;;;;;;;2.38;1.33;;;27.70;80.40;;;;;;4203943;28;20035;-60
2023/08/12 08:16:30;;;;;;;5.40;1.80;;;27.80;80.60;;;;;;4209292;28;20078;-61
2023/08/12 08:18:31;;;;;;;3.30;1.77;;;27.70;80.60;;;;;;4208007;28;20070;-62
2023/08/12 08:20:33;;;;;;;4.70;2.20;;;27.50;80.30;;;;;;4208596;28;20051;-60
2023/08/12 08:22:34;;;;;;;18.00;7.63;;;27.10;80.70;;;;;;4210291;28;20480;-60
2023/08/12 08:24:35;;;;;;;2.08;1.70;;;26.80;81.20;;;;;;4209042;28;20101;-61
2023/08/12 08:26:36;;;;;;;3.17;2.00;;;26.80;81.20;;;;;;4209613;28;20089;-61
2023/08/12 08:28:38;;;;;;;1.95;1.83;;;26.30;81.10;;;;;;4208017;28;20109;-61
2023/08/12 08:30:39;;;;;;;5.32;1.77;;;26.20;81.80;;;;;;4211048;28;20119;-61
2023/08/12 08:32:40;;;;;;;2.33;2.13;;;26.60;81.50;;;;;;4210257;28;20113;-60
2023/08/12 08:34:41;;;;;;;2.53;2.28;;;26.90;81.30;;;;;;4210061;28;20032;-61
2023/08/12 08:36:42;;;;;;;5.93;2.38;;;26.60;81.00;;;;;;4208902;28;20094;-61
2023/08/12 08:38:44;;;;;;;1.63;1.50;;;26.70;81.30;;;;;;4209561;28;20047;-61
2023/08/12 08:40:45;;;;;;;2.90;1.88;;;26.80;80.90;;;;;;4209074;28;20074;-61
2023/08/12 08:42:51;;;;;;;3.65;1.80;;;26.50;81.20;;;;;;4210347;28;20036;-62
2023/08/12 08:44:53;;;;;;;2.05;1.70;;;26.70;81.00;;;;;;4208988;28;20032;-62
2023/08/12 08:46:55;;;;;;;4.35;1.45;;;26.70;81.00;;;;;;4209022;28;20052;-61
2023/08/12 08:48:59;;;;;;;3.15;1.65;;;26.90;81.00;;;;;;4209718;28;20391;-61
2023/08/12 08:51:02;;;;;;;6.28;1.95;;;27.10;80.90;;;;;;4208927;28;20094;-62
2023/08/12 08:53:06;;;;;;;2.67;2.22;;;27.40;80.60;;;;;;4209947;28;20036;-60
2023/08/12 08:55:07;;;;;;;2.35;1.80;;;27.20;78.90;;;;;;4208607;28;20040;-62
2023/08/12 08:57:08;;;;;;;21.58;8.15;;;27.10;79.30;;;;;;4194951;28;20052;-61
2023/08/12 08:59:10;;;;;;;8.00;2.10;;;27.10;79.90;;;;;;4211176;28;20040;-61
2023/08/12 09:01:11;;;;;;;1.67;1.20;;;27.20;79.60;;;;;;4214362;28;20109;-61
2023/08/12 09:03:14;;;;;;;1.35;1.20;;;27.30;79.10;;;;;;4213043;28;20809;-64
2023/08/12 09:05:16;;;;;;;2.13;1.70;;;27.40;78.50;;;;;;4213424;28;20107;-61
2023/08/12 09:07:18;;;;;;;2.20;1.50;;;27.00;77.50;;;;;;4212389;28;20039;-61
2023/08/12 09:09:20;;;;;;;1.75;1.30;;;27.00;77.90;;;;;;4213463;28;20040;-61
2023/08/12 09:11:22;;;;;;;1.30;1.00;;;27.10;77.80;;;;;;4212555;28;20491;-62
2023/08/12 09:13:24;;;;;;;1.77;1.48;;;27.20;77.90;;;;;;4212607;28;20020;-61
2023/08/12 09:15:25;;;;;;;2.17;1.48;;;27.40;77.00;;;;;;4211333;28;20044;-61
2023/08/12 09:17:26;;;;;;;4.05;1.92;;;27.20;76.40;;;;;;4213112;28;20074;-60
2023/08/12 09:19:27;;;;;;;11.32;3.33;;;26.30;77.80;;;;;;4211028;28;20040;-61
2023/08/12 09:21:28;;;;;;;6.88;2.63;;;25.80;79.10;;;;;;4212383;28;20048;-61
2023/08/12 09:23:41;;;;;;;17.58;3.20;;;25.40;79.40;;;;;;4212175;28;20040;-61
2023/08/12 09:25:46;;;;;;;12.20;2.95;;;25.20;79.70;;;;;;4211720;28;20040;-61
2023/08/12 09:27:47;;;;;;;65.13;9.85;;;24.80;80.40;;;;;;4212162;28;20043;-60
2023/08/12 09:29:48;;;;;;;11.65;3.00;;;24.90;80.80;;;;;;4211745;28;20097;-61
2023/08/12 09:31:49;;;;;;;5.75;2.00;;;25.10;80.10;;;;;;4213509;28;20032;-60
2023/08/12 09:33:51;;;;;;;14.30;3.90;;;25.30;80.20;;;;;;4211865;28;20032;-60
2023/08/12 09:35:53;;;;;;;3.80;2.10;;;25.30;79.50;;;;;;4213115;28;20109;-60
2023/08/12 09:37:54;;;;;;;15.55;3.22;;;25.50;79.10;;;;;;4194076;28;20032;-60
2023/08/12 09:39:57;;;;;;;6.63;2.47;;;25.50;79.80;;;;;;4212967;28;20028;-61
2023/08/12 09:41:59;;;;;;;12.10;2.70;;;25.60;79.50;;;;;;4211260;28;20044;-61
2023/08/12 09:44:02;;;;;;;12.68;2.38;;;25.60;79.40;;;;;;4211612;28;20048;-61
2023/08/12 09:46:03;;;;;;;4.60;1.83;;;25.70;77.70;;;;;;4211317;28;20032;-61
2023/08/12 09:48:07;;;;;;;4.10;1.70;;;25.80;77.30;;;;;;4213113;28;20059;-62
2023/08/12 09:50:09;;;;;;;1.80;1.67;;;25.80;76.20;;;;;;4211051;28;20043;-61
2023/08/12 09:52:10;;;;;;;1.63;1.15;;;25.70;76.70;;;;;;4212043;28;20044;-61
2023/08/12 09:54:11;;;;;;;2.75;1.73;;;25.60;77.20;;;;;;4211314;28;20044;-61
2023/08/12 09:56:16;;;;;;;1.92;1.20;;;25.40;77.30;;;;;;4212936;28;20372;-61
2023/08/12 09:58:19;;;;;;;1.70;1.48;;;25.40;77.40;;;;;;4211205;28;20476;-61
2023/08/12 10:00:22;;;;;;;2.92;1.40;;;25.30;77.40;;;;;;4211607;28;20140;-60
2023/08/12 10:02:24;;;;;;;40.10;4.88;;;25.40;77.50;;;;;;4212214;28;20076;-62
2023/08/12 10:04:28;;;;;;;7.18;1.80;;;25.60;77.60;;;;;;4211282;28;20089;-61
2023/08/12 10:06:30;;;;;;;2.88;1.80;;;25.90;77.30;;;;;;4211734;28;20036;-63
2023/08/12 10:08:32;;;;;;;3.33;1.60;;;26.10;77.30;;;;;;4193363;28;20086;-61
2023/08/12 10:10:35;;;;;;;2.08;1.63;;;26.10;77.00;;;;;;4212166;28;20492;-62
2023/08/12 10:12:37;;;;;;;2.55;1.30;;;25.70;76.40;;;;;;4211191;28;20028;-62
2023/08/12 10:14:39;;;;;;;4.15;1.70;;;25.50;76.60;;;;;;4212570;28;20432;-61
2023/08/12 10:16:45;;;;;;;6.40;2.10;;;25.50;76.90;;;;;;4211520;28;20028;-65
2023/08/12 10:18:47;;;;;;;2.88;1.90;;;25.80;76.80;;;;;;4212069;28;20425;-62
2023/08/12 10:20:49;;;;;;;2.05;1.23;;;25.90;76.30;;;;;;4210611;28;20051;-62
2023/08/12 10:22:54;;;;;;;3.70;1.63;;;26.00;76.10;;;;;;4212345;28;20557;-61
2023/08/12 10:24:58;;;;;;;13.05;2.95;;;26.10;75.70;;;;;;4210667;28;20044;-63
2023/08/12 10:26:59;;;;;;;2.28;1.40;;;25.90;75.80;;;;;;4212601;28;20075;-61
2023/08/12 10:29:01;;;;;;;21.48;4.45;;;25.80;75.10;;;;;;4210990;28;20028;-61
2023/08/12 10:31:03;;;;;;;26.92;5.22;;;25.40;75.50;;;;;;4211951;28;20040;-61
2023/08/12 10:33:05;;;;;;;3.58;1.83;;;25.20;75.00;;;;;;4211821;28;20081;-61